65FL weather

Floridian National Golf Club, LLC Heliport
Stuart, Florida, United States

Public forecast

Using degrees Fahrenheit for public forecast. Weather courtesy of forecast.io.

Closest aviation weather report (METAR) to Floridian National Golf Club, LLC Heliport

Closest report is Witham Field, 4.1 nm (7.6 km) ESE. Retrieved 2019/10/17 16:47 UTC (26 minutes ago):

KSUA 171647Z 34005KT 7SM SCT020 29/20 A2994

Closest aviation forecast (TAF) to Floridian National Golf Club, LLC Heliport

Closest forecast is Witham Field, 4.1 nm (7.6 km) ESE. Retrieved 2019/10/17 12:22 UTC (5 hours ago):

TAF KSUA 171120Z 1712/1812 30006KT P6SM SCT010 SCT015 BKN250 FM171500 34005KT P6SM SCT030 BKN200 FM171700 05008KT P6SM VCSH SCT035 BKN100 FM180000 06006KT P6SM VCSH SCT030 BKN200